Time;durP1;ratioP1;P1;durP2;ratioP2;P2;SDS_P1;SDS_P2;PMS_P1;PMS_P2;Temp;Humidity;BMP_temperature;BMP_pressure;BME280_temperature;BME280_humidity;BME280_pressure;Samples;Min_cycle;Max_cycle;Signal;HPM_P1;HPM_P2
2022/09/12 00:01:55;;;;;;;;;;;;;;;14.81;100.00;101675.28;5037370;28;20023;-41
2022/09/12 00:04:20;;;;;;;;;;;;;;;14.81;100.00;101671.78;5035979;28;20533;-43
2022/09/12 00:06:45;;;;;;;;;;;;;;;14.81;100.00;101671.78;5036495;28;20130;-43
2022/09/12 00:09:12;;;;;;;;;;;;;;;14.80;100.00;101664.69;5036650;28;20007;-42
2022/09/12 00:11:38;;;;;;;;;;;;;;;14.78;100.00;101670.25;5035157;28;19927;-41
2022/09/12 00:14:04;;;;;;;;;;;;;;;14.78;100.00;101655.97;5022986;28;19920;-42
2022/09/12 00:16:30;;;;;;;;;;;;;;;14.78;100.00;101661.34;5036466;28;19916;-43
2022/09/12 00:18:55;;;;;;;;;;;;;;;14.73;100.00;101659.16;5035583;28;20561;-43
2022/09/12 00:21:21;;;;;;;;;;;;;;;14.70;100.00;101656.81;5035655;28;20019;-44
2022/09/12 00:23:47;;;;;;;;;;;;;;;14.66;100.00;101653.63;5036718;28;19960;-41
2022/09/12 00:26:13;;;;;;;;;;;;;;;14.64;100.00;101646.72;5035164;28;19908;-42
2022/09/12 00:28:39;;;;;;;;;;;;;;;14.60;100.00;101654.28;5035885;28;20373;-42
2022/09/12 00:31:06;;;;;;;;;;;;;;;14.57;100.00;101656.44;5036166;28;20169;-43
2022/09/12 00:33:31;;;;;;;;;;;;;;;14.50;100.00;101645.53;5036125;28;20276;-42
2022/09/12 00:35:56;;;;;;;;;;;;;;;14.46;100.00;101636.97;5030356;28;19909;-42
2022/09/12 00:38:22;;;;;;;;;;;;;;;14.51;100.00;101652.56;5032112;28;20005;-42
2022/09/12 00:40:48;;;;;;;;;;;;;;;14.50;100.00;101640.16;5031654;28;20174;-42
2022/09/12 00:43:13;;;;;;;;;;;;;;;14.49;100.00;101643.84;5036688;28;19974;-42
2022/09/12 00:45:41;;;;;;;;;;;;;;;14.48;100.00;101637.63;5036444;28;20423;-41
2022/09/12 00:48:12;;;;;;;;;;;;;;;14.46;100.00;101638.78;5036197;28;20381;-42
2022/09/12 00:50:37;;;;;;;;;;;;;;;14.43;100.00;101639.97;5033728;28;20090;-41
2022/09/12 00:53:03;;;;;;;;;;;;;;;14.40;100.00;101634.94;5035858;28;20403;-42
2022/09/12 00:55:36;;;;;;;;;;;;;;;14.39;100.00;101633.25;5034326;28;19905;-42
2022/09/12 00:58:08;;;;;;;;;;;;;;;14.33;100.00;101632.06;5036606;28;19909;-42
2022/09/12 01:00:33;;;;;;;;;;;;;;;14.36;100.00;101629.06;5054363;28;20340;-45
2022/09/12 01:03:00;;;;;;;;;;;;;;;14.33;100.00;101633.94;5034487;28;19913;-43
2022/09/12 01:05:27;;;;;;;;;;;;;;;14.29;100.00;101633.41;5033848;28;20371;-44
2022/09/12 01:07:53;;;;;;;;;;;;;;;14.26;100.00;101624.84;5036045;28;20456;-47
2022/09/12 01:10:19;;;;;;;;;;;;;;;14.24;100.00;101626.84;5034352;28;20063;-45
2022/09/12 01:12:45;;;;;;;;;;;;;;;14.22;100.00;101627.00;5036110;28;20340;-45
2022/09/12 01:15:10;;;;;;;;;;;;;;;14.21;100.00;101628.03;5035661;28;19908;-47
2022/09/12 01:17:54;;;;;;;;;;;;;;;14.19;100.00;101616.63;5034968;28;20360;-46
2022/09/12 01:20:35;;;;;;;;;;;;;;;14.17;100.00;101618.59;5033901;28;19912;-46
2022/09/12 01:23:15;;;;;;;;;;;;;;;14.14;100.00;101613.59;5035367;28;19908;-46
2022/09/12 01:25:49;;;;;;;;;;;;;;;14.13;100.00;101614.59;5034761;28;19916;-43
2022/09/12 01:28:42;;;;;;;;;;;;;;;14.09;100.00;101614.06;5023103;28;19912;-42
2022/09/12 01:31:14;;;;;;;;;;;;;;;14.08;100.00;101612.38;5034547;28;20433;-44
2022/09/12 01:33:58;;;;;;;;;;;;;;;14.07;100.00;101607.19;5035726;28;19923;-43
2022/09/12 01:36:33;;;;;;;;;;;;;;;14.07;100.00;101604.50;5033730;28;19920;-45
2022/09/12 01:39:08;;;;;;;;;;;;;;;14.05;100.00;101603.81;5028028;28;19920;-43
2022/09/12 01:41:41;;;;;;;;;;;;;;;14.04;100.00;101600.31;5028876;28;19918;-44
2022/09/12 01:44:15;;;;;;;;;;;;;;;14.03;100.00;101597.78;5034703;28;19944;-47
2022/09/12 01:46:41;;;;;;;;;;;;;;;13.99;100.00;101600.78;5035077;28;19923;-45
2022/09/12 01:49:21;;;;;;;;;;;;;;;13.97;100.00;101596.59;5033700;28;19932;-42
2022/09/12 01:51:53;;;;;;;;;;;;;;;13.95;100.00;101598.59;5034869;28;20007;-46
2022/09/12 01:54:28;;;;;;;;;;;;;;;13.92;100.00;101596.25;5023170;28;19970;-44
2022/09/12 01:56:56;;;;;;;;;;;;;;;13.89;100.00;101591.22;5034272;28;19908;-45
2022/09/12 01:59:27;;;;;;;;;;;;;;;13.88;100.00;101586.84;5033426;28;19927;-46
2022/09/12 02:01:57;;;;;;;;;;;;;;;13.88;100.00;101582.28;5034787;28;19917;-47
2022/09/12 02:04:32;;;;;;;;;;;;;;;13.87;100.00;101577.13;5033492;28;20458;-44
2022/09/12 02:07:05;;;;;;;;;;;;;;;13.87;100.00;101585.19;5034622;28;20405;-47
2022/09/12 02:09:35;;;;;;;;;;;;;;;13.84;100.00;101572.06;5033751;28;19936;-42
2022/09/12 02:12:02;;;;;;;;;;;;;;;13.84;100.00;101574.75;5033511;28;19932;-43
2022/09/12 02:14:30;;;;;;;;;;;;;;;13.83;100.00;101575.75;5034107;28;19964;-45
2022/09/12 02:17:01;;;;;;;;;;;;;;;13.80;100.00;101569.72;5032842;28;19913;-46
2022/09/12 02:19:33;;;;;;;;;;;;;;;13.83;100.00;101570.38;5030564;28;19982;-44
2022/09/12 02:22:00;;;;;;;;;;;;;;;13.80;100.00;101563.50;5034232;28;19913;-44
2022/09/12 02:24:34;;;;;;;;;;;;;;;13.77;100.00;101567.34;5033765;28;20554;-44
2022/09/12 02:27:06;;;;;;;;;;;;;;;13.75;100.00;101571.22;5033324;28;20399;-45
2022/09/12 02:29:31;;;;;;;;;;;;;;;13.73;100.00;101568.69;5033735;28;19908;-45
2022/09/12 02:31:58;;;;;;;;;;;;;;;13.72;100.00;101572.38;5034426;28;19916;-47
2022/09/12 02:34:48;;;;;;;;;;;;;;;13.70;100.00;101571.69;5032895;28;20336;-46
2022/09/12 02:37:32;;;;;;;;;;;;;;;13.67;100.00;101576.56;5031282;28;20011;-41
2022/09/12 02:39:58;;;;;;;;;;;;;;;13.65;100.00;101582.09;5019069;28;19912;-46
2022/09/12 02:42:24;;;;;;;;;;;;;;;13.63;100.00;101568.00;5033164;28;20016;-45
2022/09/12 02:44:50;;;;;;;;;;;;;;;13.61;100.00;101569.97;5033830;28;20019;-44
2022/09/12 02:47:37;;;;;;;;;;;;;;;13.61;100.00;101569.97;5034505;28;19947;-44
2022/09/12 02:50:04;;;;;;;;;;;;;;;13.62;100.00;101564.44;5033471;28;20477;-44
2022/09/12 02:52:30;;;;;;;;;;;;;;;13.64;100.00;101556.25;5038230;28;20393;-45
2022/09/12 02:54:56;;;;;;;;;;;;;;;13.61;100.00;101549.38;5035609;28;19992;-45
2022/09/12 02:57:21;;;;;;;;;;;;;;;13.62;100.00;101552.88;5037813;28;20003;-46
2022/09/12 02:59:47;;;;;;;;;;;;;;;13.60;100.00;101553.03;5027185;28;20000;-47
2022/09/12 03:02:20;;;;;;;;;;;;;;;13.62;100.00;101550.19;5019227;28;19916;-42
2022/09/12 03:04:57;;;;;;;;;;;;;;;13.62;100.00;101547.53;5020534;28;19996;-42
2022/09/12 03:07:34;;;;;;;;;;;;;;;13.60;100.00;101541.47;5035896;28;19917;-46
2022/09/12 03:10:08;;;;;;;;;;;;;;;13.57;100.00;101541.81;5025197;28;20003;-46
2022/09/12 03:12:42;;;;;;;;;;;;;;;13.58;100.00;101544.31;5037648;28;20324;-43
2022/09/12 03:15:07;;;;;;;;;;;;;;;13.56;100.00;101538.28;5031670;28;19998;-44
2022/09/12 03:17:42;;;;;;;;;;;;;;;13.57;100.00;101544.47;5035967;28;20347;-48
2022/09/12 03:20:19;;;;;;;;;;;;;;;13.54;100.00;101539.44;5035496;28;19924;-44
2022/09/12 03:22:52;;;;;;;;;;;;;;;13.48;100.00;101532.06;5037264;28;19913;-46
2022/09/12 03:25:17;;;;;;;;;;;;;;;13.51;100.00;101537.94;5034995;28;19947;-44
2022/09/12 03:27:55;;;;;;;;;;;;;;;13.52;100.00;101538.78;5037597;28;19916;-45
2022/09/12 03:30:21;;;;;;;;;;;;;;;13.53;100.00;101537.78;5037341;28;19908;-45
2022/09/12 03:32:48;;;;;;;;;;;;;;;13.56;100.00;101542.78;5030901;28;20016;-47
2022/09/12 03:35:14;;;;;;;;;;;;;;;13.50;100.00;101530.06;5022491;28;20380;-46
2022/09/12 03:37:39;;;;;;;;;;;;;;;13.51;100.00;101534.41;5037380;28;19913;-43
2022/09/12 03:40:05;;;;;;;;;;;;;;;13.50;100.00;101528.19;5035919;28;19921;-43
2022/09/12 03:42:31;;;;;;;;;;;;;;;13.49;100.00;101534.56;5037275;28;19912;-43
2022/09/12 03:44:56;;;;;;;;;;;;;;;13.50;100.00;101527.38;5037139;28;19909;-43
2022/09/12 03:47:21;;;;;;;;;;;;;;;13.49;100.00;101526.50;5036917;28;19921;-44
2022/09/12 03:49:46;;;;;;;;;;;;;;;13.47;100.00;101525.00;5034982;28;19923;-43
2022/09/12 03:52:12;;;;;;;;;;;;;;;13.48;100.00;101529.38;5037546;28;19952;-41
2022/09/12 03:54:38;;;;;;;;;;;;;;;13.48;100.00;101524.84;5034183;28;20127;-43
2022/09/12 03:57:03;;;;;;;;;;;;;;;13.47;100.00;101520.47;5037064;28;20027;-44
2022/09/12 03:59:28;;;;;;;;;;;;;;;13.46;100.00;101518.81;5036171;28;19908;-43
2022/09/12 04:01:54;;;;;;;;;;;;;;;13.47;100.00;101525.00;5036505;28;20500;-42
2022/09/12 04:04:19;;;;;;;;;;;;;;;13.45;100.00;101519.78;5035999;28;19916;-45
2022/09/12 04:06:44;;;;;;;;;;;;;;;13.39;100.00;101515.94;5036875;28;19955;-44
2022/09/12 04:09:09;;;;;;;;;;;;;;;13.43;100.00;101521.81;5024285;28;20640;-42
2022/09/12 04:11:34;;;;;;;;;;;;;;;13.40;100.00;101509.53;5035436;28;20576;-46
2022/09/12 04:14:00;;;;;;;;;;;;;;;13.41;100.00;101511.25;5036535;28;20557;-45
2022/09/12 04:16:25;;;;;;;;;;;;;;;13.42;100.00;101507.56;5036075;28;19924;-45
2022/09/12 04:18:50;;;;;;;;;;;;;;;13.41;100.00;101511.25;5036176;28;20177;-44
2022/09/12 04:21:17;;;;;;;;;;;;;;;13.41;100.00;101508.56;5035657;28;19919;-44
2022/09/12 04:23:42;;;;;;;;;;;;;;;13.44;100.00;101504.69;5035736;28;19958;-42
2022/09/12 04:26:08;;;;;;;;;;;;;;;13.47;100.00;101514.28;5035118;28;19921;-43
2022/09/12 04:28:35;;;;;;;;;;;;;;;13.48;100.00;101508.75;5036354;28;20369;-44
2022/09/12 04:31:08;;;;;;;;;;;;;;;13.50;100.00;101503.22;5035340;28;19917;-45
2022/09/12 04:33:34;;;;;;;;;;;;;;;13.50;100.00;101501.34;5036385;28;20498;-47
2022/09/12 04:36:07;;;;;;;;;;;;;;;13.51;100.00;101500.38;5034027;28;20534;-44
2022/09/12 04:38:32;;;;;;;;;;;;;;;13.49;100.00;101488.94;5034370;28;19909;-44
2022/09/12 04:40:57;;;;;;;;;;;;;;;13.49;100.00;101499.66;5027784;28;19912;-45
2022/09/12 04:43:22;;;;;;;;;;;;;;;13.46;100.00;101491.97;5016391;28;19913;-44
2022/09/12 04:45:47;;;;;;;;;;;;;;;13.46;100.00;101493.78;5016426;28;19967;-44
2022/09/12 04:48:13;;;;;;;;;;;;;;;13.46;100.00;101499.16;5031341;28;19925;-43
2022/09/12 04:50:39;;;;;;;;;;;;;;;13.47;100.00;101492.81;5024659;28;19913;-46
2022/09/12 04:53:04;;;;;;;;;;;;;;;13.46;100.00;101499.16;5015931;28;20098;-45
2022/09/12 04:55:29;;;;;;;;;;;;;;;13.42;100.00;101490.59;5014935;28;19913;-45
2022/09/12 04:57:54;;;;;;;;;;;;;;;13.43;100.00;101489.63;5018740;28;20016;-43
2022/09/12 05:00:19;;;;;;;;;;;;;;;13.42;100.00;101495.97;5015765;28;19920;-47
2022/09/12 05:02:45;;;;;;;;;;;;;;;13.42;100.00;101490.59;5015555;28;19920;-43
2022/09/12 05:05:10;;;;;;;;;;;;;;;13.43;100.00;101490.44;5013849;28;19920;-45
2022/09/12 05:07:35;;;;;;;;;;;;;;;13.43;100.00;101490.44;5020542;28;19921;-46
2022/09/12 05:10:02;;;;;;;;;;;;;;;13.42;100.00;101502.19;5034574;28;19921;-43
2022/09/12 05:12:28;;;;;;;;;;;;;;;13.42;100.00;101493.28;5024745;28;20232;-42
2022/09/12 05:14:53;;;;;;;;;;;;;;;13.40;100.00;101498.81;5023937;28;20091;-44
2022/09/12 05:17:18;;;;;;;;;;;;;;;13.44;100.00;101499.31;5032961;28;20159;-43
2022/09/12 05:19:43;;;;;;;;;;;;;;;13.48;100.00;101502.53;5022572;28;19913;-44
2022/09/12 05:22:08;;;;;;;;;;;;;;;13.49;100.00;101506.88;5023512;28;20316;-43
2022/09/12 05:24:34;;;;;;;;;;;;;;;13.50;100.00;101501.34;5014935;28;19939;-44
2022/09/12 05:26:59;;;;;;;;;;;;;;;13.51;100.00;101500.38;5021920;28;20368;-43
2022/09/12 05:29:24;;;;;;;;;;;;;;;13.52;100.00;101506.56;5015412;28;19917;-45
2022/09/12 05:31:50;;;;;;;;;;;;;;;13.50;100.00;101497.84;5015701;28;20220;-43
2022/09/12 05:34:16;;;;;;;;;;;;;;;13.50;100.00;101503.22;5019567;28;19981;-46
2022/09/12 05:36:41;;;;;;;;;;;;;;;13.52;100.00;101503.88;5017272;28;20264;-42
2022/09/12 05:39:06;;;;;;;;;;;;;;;13.54;100.00;101497.38;5015368;28;19912;-43
2022/09/12 05:41:32;;;;;;;;;;;;;;;13.55;100.00;101507.06;5014887;28;19992;-46
2022/09/12 05:44:02;;;;;;;;;;;;;;;13.55;100.00;101506.25;5013525;28;19909;-45
2022/09/12 05:46:31;;;;;;;;;;;;;;;13.53;100.00;101506.41;5023478;28;19912;-43
2022/09/12 05:49:01;;;;;;;;;;;;;;;13.54;100.00;101512.59;5023459;28;19936;-42
2022/09/12 05:51:27;;;;;;;;;;;;;;;13.53;100.00;101506.41;5023598;28;19970;-42
2022/09/12 05:53:56;;;;;;;;;;;;;;;13.55;100.00;101509.75;5027068;28;20509;-41
2022/09/12 05:56:24;;;;;;;;;;;;;;;13.58;100.00;101505.91;5030002;28;19920;-41
2022/09/12 05:58:56;;;;;;;;;;;;;;;13.57;100.00;101512.28;5015401;28;19913;-41
2022/09/12 06:01:21;;;;;;;;;;;;;;;13.59;100.00;101513.81;5025246;28;19919;-43
2022/09/12 06:03:48;;;;;;;;;;;;;;;13.59;100.00;101519.19;5025559;28;19920;-42
2022/09/12 06:06:14;;;;;;;;;;;;;;;13.59;100.00;101524.53;5022883;28;20282;-40
2022/09/12 06:08:42;;;;;;;;;;;;;;;13.58;100.00;101522.84;5024429;28;20334;-42
2022/09/12 06:11:08;;;;;;;;;;;;;;;13.60;100.00;101512.78;5026297;28;19920;-42
2022/09/12 06:13:35;;;;;;;;;;;;;;;13.63;100.00;101522.38;5021760;28;19967;-41
2022/09/12 06:16:05;;;;;;;;;;;;;;;13.65;100.00;101519.53;5018895;28;20343;-41
2022/09/12 06:18:30;;;;;;;;;;;;;;;13.65;100.00;101516.84;5023443;28;19916;-41
2022/09/12 06:20:56;;;;;;;;;;;;;;;13.65;100.00;101506.09;5019664;28;20418;-40
2022/09/12 06:23:21;;;;;;;;;;;;;;;13.61;100.00;101502.88;5028949;28;19912;-39
2022/09/12 06:25:48;;;;;;;;;;;;;;;13.58;100.00;101504.06;5021439;28;19917;-40
2022/09/12 06:28:13;;;;;;;;;;;;;;;13.60;100.00;101511.97;5026272;28;19999;-41
2022/09/12 06:30:39;;;;;;;;;;;;;;;13.61;100.00;101510.94;5016126;28;20374;-44
2022/09/12 06:33:04;;;;;;;;;;;;;;;13.60;100.00;101503.91;5015906;28;19953;-42
2022/09/12 06:35:29;;;;;;;;;;;;;;;13.60;100.00;101503.91;5012344;28;20291;-42
2022/09/12 06:37:54;;;;;;;;;;;;;;;13.59;100.00;101516.50;5013991;28;19913;-41
2022/09/12 06:40:19;;;;;;;;;;;;;;;13.62;100.00;101507.25;5013585;28;19944;-42
2022/09/12 06:42:45;;;;;;;;;;;;;;;13.65;100.00;101515.00;5012937;28;19939;-40
2022/09/12 06:45:10;;;;;;;;;;;;;;;13.68;100.00;101500.38;5013373;28;20167;-40
2022/09/12 06:47:36;;;;;;;;;;;;;;;13.73;100.00;101508.78;5013920;28;19995;-39
2022/09/12 06:50:01;;;;;;;;;;;;;;;13.79;100.00;101508.94;5021140;28;19917;-40
2022/09/12 06:52:28;;;;;;;;;;;;;;;13.87;100.00;101507.31;5017485;28;19927;-39
2022/09/12 06:54:53;;;;;;;;;;;;;;;13.96;100.00;101508.97;5016031;28;19925;-42
2022/09/12 06:57:18;;;;;;;;;;;;;;;14.07;100.00;101502.41;5014250;28;19921;-40
2022/09/12 06:59:43;;;;;;;;;;;;;;;14.17;100.00;101503.94;5014343;28;19932;-42
2022/09/12 07:02:09;;;;;;;;;;;;;;;14.26;100.00;101512.00;5018769;28;20362;-43
2022/09/12 07:04:35;;;;;;;;;;;;;;;14.30;100.00;101502.59;5020474;28;19912;-43
2022/09/12 07:07:00;;;;;;;;;;;;;;;14.42;100.00;101503.91;5014111;28;20291;-45
2022/09/12 07:09:25;;;;;;;;;;;;;;;14.57;100.00;101506.75;5019019;28;19913;-42
2022/09/12 07:11:51;;;;;;;;;;;;;;;14.67;100.00;101498.53;5031499;28;19927;-42
2022/09/12 07:14:16;;;;;;;;;;;;;;;14.77;100.00;101496.50;5030536;28;20035;-40
2022/09/12 07:16:41;;;;;;;;;;;;;;;14.82;100.00;101498.66;5033495;28;19913;-40
2022/09/12 07:19:07;;;;;;;;;;;;;;;14.80;100.00;101489.91;5030648;28;19919;-41
2022/09/12 07:21:35;;;;;;;;;;;;;;;14.86;100.00;101491.91;5029822;28;20026;-41
2022/09/12 07:24:00;;;;;;;;;;;;;;;14.86;100.00;101499.97;5031110;28;19935;-41
2022/09/12 07:26:26;;;;;;;;;;;;;;;14.88;100.00;101495.25;5028123;28;19995;-41
2022/09/12 07:28:55;;;;;;;;;;;;;;;15.03;100.00;101488.13;5032153;28;20024;-41
2022/09/12 07:31:22;;;;;;;;;;;;;;;15.13;100.00;101487.09;5031958;28;19908;-41
2022/09/12 07:33:49;;;;;;;;;;;;;;;15.16;100.00;101503.72;5033001;28;19909;-41
2022/09/12 07:36:15;;;;;;;;;;;;;;;15.24;100.00;101498.31;5029675;28;20405;-41
2022/09/12 07:38:40;;;;;;;;;;;;;;;15.38;100.00;101496.72;5035422;28;19944;-42
2022/09/12 07:41:19;;;;;;;;;;;;;;;15.56;100.00;101507.19;5032090;28;20010;-40
2022/09/12 07:43:45;;;;;;;;;;;;;;;15.80;100.00;101508.09;5023396;28;19936;-41
2022/09/12 07:46:10;;;;;;;;;;;;;;;15.99;100.00;101504.09;5023051;28;19920;-44
2022/09/12 07:48:36;;;;;;;;;;;;;;;16.20;100.00;101498.84;5017120;28;20372;-41
2022/09/12 07:51:03;;;;;;;;;;;;;;;16.29;100.00;101499.59;5018185;28;19913;-44
2022/09/12 07:53:32;;;;;;;;;;;;;;;16.37;100.00;101504.91;5021619;28;19920;-43
2022/09/12 07:55:58;;;;;;;;;;;;;;;16.53;100.00;101503.06;5013662;28;19948;-46
2022/09/12 07:58:23;;;;;;;;;;;;;;;16.71;100.00;101516.22;5017117;28;19961;-43
2022/09/12 08:00:49;;;;;;;;;;;;;;;16.84;100.00;101510.19;5016773;28;20462;-42
2022/09/12 08:03:14;;;;;;;;;;;;;;;16.88;100.00;101516.91;5018138;28;19916;-41
2022/09/12 08:05:39;;;;;;;;;;;;;;;16.86;100.00;101510.88;5015636;28;19909;-40
2022/09/12 08:08:04;;;;;;;;;;;;;;;16.85;100.00;101507.31;5016779;28;19939;-41
2022/09/12 08:10:30;;;;;;;;;;;;;;;17.01;100.00;101509.00;5030301;28;19963;-46
2022/09/12 08:12:56;;;;;;;;;;;;;;;17.16;100.00;101508.97;5035292;28;19974;-41
2022/09/12 08:15:21;;;;;;;;;;;;;;;17.34;100.00;101508.56;5036385;28;19909;-45
2022/09/12 08:17:46;;;;;;;;;;;;;;;17.44;100.00;101511.78;5037104;28;19962;-40
2022/09/12 08:20:12;;;;;;;;;;;;;;;17.63;100.00;101514.91;5032956;28;19908;-41
2022/09/12 08:22:38;;;;;;;;;;;;;;;17.80;100.00;101519.03;5035830;28;20000;-44
2022/09/12 08:25:04;;;;;;;;;;;;;;;17.98;100.00;101515.91;5035585;28;19920;-40
2022/09/12 08:27:29;;;;;;;;;;;;;;;18.11;100.00;101514.34;5036179;28;19913;-42
2022/09/12 08:29:54;;;;;;;;;;;;;;;18.13;100.00;101515.84;5036560;28;20318;-44
2022/09/12 08:32:19;;;;;;;;;;;;;;;18.09;100.00;101519.97;5026345;28;19917;-43
2022/09/12 08:34:45;;;;;;;;;;;;;;;18.11;100.00;101522.47;5033115;28;20003;-44
2022/09/12 08:37:10;;;;;;;;;;;;;;;18.24;100.00;101528.00;5034074;28;19961;-41
2022/09/12 08:39:35;;;;;;;;;;;;;;;18.42;100.00;101524.81;5034680;28;20307;-43
2022/09/12 08:42:02;;;;;;;;;;;;;;;18.59;100.00;101526.19;5036333;28;19931;-43
2022/09/12 08:44:27;;;;;;;;;;;;;;;18.74;100.00;101517.13;5035458;28;19955;-41
2022/09/12 08:47:01;;;;;;;;;;;;;;;18.96;100.00;101517.91;5035011;28;19990;-41
2022/09/12 08:49:32;;;;;;;;;;;;;;;19.11;100.00;101515.91;5033922;28;20380;-42
2022/09/12 08:52:01;;;;;;;;;;;;;;;19.19;100.00;101517.59;5036137;28;19901;-40
2022/09/12 08:54:27;;;;;;;;;;;;;;;19.32;100.00;101511.41;5034618;28;19946;-43
2022/09/12 08:56:57;;;;;;;;;;;;;;;19.46;100.00;101520.41;5035908;28;19962;-44
2022/09/12 08:59:22;;;;;;;;;;;;;;;19.50;100.00;101514.38;5034746;28;19919;-42
2022/09/12 09:01:52;;;;;;;;;;;;;;;19.63;100.00;101520.88;5036020;28;19917;-41
2022/09/12 09:04:30;;;;;;;;;;;;;;;19.74;100.00;101513.00;5034797;28;20423;-40
2022/09/12 09:06:58;;;;;;;;;;;;;;;19.88;100.00;101519.28;5035492;28;19921;-42
2022/09/12 09:09:29;;;;;;;;;;;;;;;19.96;100.00;101512.84;5020425;28;20152;-41
2022/09/12 09:12:16;;;;;;;;;;;;;;;20.11;100.00;101513.47;5035582;28;20212;-42
2022/09/12 09:14:56;;;;;;;;;;;;;;;20.28;100.00;101497.63;5022462;28;19913;-44
2022/09/12 09:17:25;;;;;;;;;;;;;;;20.42;100.00;101497.59;5034498;28;19909;-45
2022/09/12 09:19:55;;;;;;;;;;;;;;;20.51;100.00;101496.31;5034200;28;19920;-42
2022/09/12 09:22:25;;;;;;;;;;;;;;;20.63;100.00;101505.50;5025589;28;20283;-43
2022/09/12 09:24:54;;;;;;;;;;;;;;;20.74;100.00;101497.75;5034119;28;19947;-41
2022/09/12 09:27:19;;;;;;;;;;;;;;;20.84;100.00;101507.16;5035455;28;19913;-41
2022/09/12 09:29:46;;;;;;;;;;;;;;;21.00;100.00;101494.16;5034680;28;20096;-43
2022/09/12 09:32:17;;;;;;;;;;;;;;;21.20;100.00;101497.59;5036256;28;19976;-44
2022/09/12 09:34:42;;;;;;;;;;;;;;;21.32;98.18;101505.09;5034379;28;20266;-43
2022/09/12 09:37:15;;;;;;;;;;;;;;;21.31;100.00;101497.97;5035210;28;19909;-44
2022/09/12 09:39:56;;;;;;;;;;;;;;;21.49;98.46;101500.03;5034285;28;19908;-44
2022/09/12 09:42:34;;;;;;;;;;;;;;;21.61;97.92;101496.38;5036029;28;20326;-42
2022/09/12 09:45:01;;;;;;;;;;;;;;;21.77;98.31;101488.72;5035274;28;19921;-42
2022/09/12 09:47:26;;;;;;;;;;;;;;;21.77;97.64;101488.72;5034849;28;20077;-43
2022/09/12 09:49:52;;;;;;;;;;;;;;;21.86;97.38;101486.56;5033535;28;19966;-46
2022/09/12 09:52:23;;;;;;;;;;;;;;;21.94;93.23;101484.41;5035855;28;19977;-42
2022/09/12 09:54:56;;;;;;;;;;;;;;;21.95;95.18;101474.38;5033956;28;19955;-46
2022/09/12 09:57:33;;;;;;;;;;;;;;;22.00;94.72;101471.00;5034250;28;19920;-42
2022/09/12 10:00:20;;;;;;;;;;;;;;;22.10;91.11;101464.00;5034558;28;20458;-45
2022/09/12 10:03:00;;;;;;;;;;;;;;;22.12;89.42;101461.06;5023936;28;20374;-44
2022/09/12 10:05:25;;;;;;;;;;;;;;;22.17;90.94;101461.22;5032112;28;19991;-46
2022/09/12 10:07:50;;;;;;;;;;;;;;;22.35;90.01;101460.44;5028363;28;20012;-43
2022/09/12 10:10:17;;;;;;;;;;;;;;;22.56;90.57;101461.91;5027302;28;19968;-40
2022/09/12 10:12:42;;;;;;;;;;;;;;;22.74;86.51;101466.50;5031227;28;19974;-43
2022/09/12 10:15:19;;;;;;;;;;;;;;;22.78;88.10;101459.56;5023878;28;19913;-42
2022/09/12 10:17:46;;;;;;;;;;;;;;;22.91;88.89;101458.56;5015838;28;19912;-42
2022/09/12 10:20:28;;;;;;;;;;;;;;;23.07;87.54;101447.09;5013855;28;20355;-43
2022/09/12 10:22:53;;;;;;;;;;;;;;;23.09;88.20;101447.66;5014763;28;20341;-41
2022/09/12 10:25:20;;;;;;;;;;;;;;;23.15;88.40;101445.94;5013815;28;19901;-44
2022/09/12 10:27:51;;;;;;;;;;;;;;;23.21;83.58;101442.28;5014340;28;19919;-44
2022/09/12 10:30:18;;;;;;;;;;;;;;;23.26;84.14;101436.13;5014982;28;19913;-44
2022/09/12 10:32:45;;;;;;;;;;;;;;;23.34;84.90;101433.09;5015449;28;19913;-42
2022/09/12 10:35:22;;;;;;;;;;;;;;;23.27;82.63;101430.47;5025424;28;19908;-44
2022/09/12 10:37:53;;;;;;;;;;;;;;;23.30;85.91;101422.88;5014321;28;19909;-45
2022/09/12 10:40:23;;;;;;;;;;;;;;;23.27;78.61;101425.00;5013311;28;19920;-45
2022/09/12 10:42:53;;;;;;;;;;;;;;;23.32;79.19;101412.56;5014564;28;19916;-43
2022/09/12 10:45:21;;;;;;;;;;;;;;;23.36;79.66;101411.88;5012574;28;19912;-43
2022/09/12 10:47:47;;;;;;;;;;;;;;;23.54;79.22;101407.41;5031738;28;19923;-41
2022/09/12 10:50:26;;;;;;;;;;;;;;;23.70;77.53;101406.72;5029080;28;20431;-43
2022/09/12 10:52:52;;;;;;;;;;;;;;;23.78;73.30;101403.66;5033090;28;19993;-43
2022/09/12 10:55:23;;;;;;;;;;;;;;;23.62;72.53;101404.34;5031453;28;20403;-43
2022/09/12 10:57:53;;;;;;;;;;;;;;;23.69;73.60;101401.50;5016577;28;20411;-45
2022/09/12 11:00:26;;;;;;;;;;;;;;;23.77;74.81;101396.53;5013893;28;19924;-47
2022/09/12 11:02:57;;;;;;;;;;;;;;;23.94;72.66;101384.97;5014026;28;19931;-44
2022/09/12 11:05:41;;;;;;;;;;;;;;;23.94;74.74;101384.97;5011949;28;19940;-44
2022/09/12 11:08:15;;;;;;;;;;;;;;;23.92;72.47;101387.94;5013922;28;20459;-47
2022/09/12 11:10:59;;;;;;;;;;;;;;;23.87;73.54;101387.81;5014090;28;20015;-46
2022/09/12 11:13:31;;;;;;;;;;;;;;;23.85;73.48;101381.75;5026048;28;19966;-45
2022/09/12 11:15:56;;;;;;;;;;;;;;;23.92;73.87;101373.47;5020135;28;20306;-47
2022/09/12 11:18:22;;;;;;;;;;;;;;;24.21;73.80;101375.19;5018427;28;20275;-46
2022/09/12 11:21:02;;;;;;;;;;;;;;;24.42;72.21;101378.38;5016465;28;20544;-44
2022/09/12 11:23:30;;;;;;;;;;;;;;;24.68;68.65;101381.69;5016706;28;19963;-46
2022/09/12 11:26:07;;;;;;;;;;;;;;;24.86;64.98;101376.00;5029616;28;19991;-44
2022/09/12 11:28:38;;;;;;;;;;;;;;;24.74;65.15;101386.16;5018019;28;19933;-45
2022/09/12 11:31:21;;;;;;;;;;;;;;;24.74;65.40;101386.16;5017096;28;19909;-44
2022/09/12 11:33:49;;;;;;;;;;;;;;;24.91;68.22;101378.00;5021195;28;19923;-44
2022/09/12 11:36:27;;;;;;;;;;;;;;;25.09;64.64;101377.00;5032957;28;20000;-46
2022/09/12 11:39:01;;;;;;;;;;;;;;;25.07;62.24;101370.94;5032644;28;20232;-48
2022/09/12 11:41:32;;;;;;;;;;;;;;;24.98;66.17;101375.13;5033039;28;19908;-44
2022/09/12 11:44:07;;;;;;;;;;;;;;;25.12;68.80;101380.06;5018037;28;20003;-44
2022/09/12 11:46:35;;;;;;;;;;;;;;;25.20;63.04;101391.66;5017462;28;19909;-47
2022/09/12 11:49:06;;;;;;;;;;;;;;;25.16;63.47;101388.59;5016297;28;19913;-46
2022/09/12 11:51:36;;;;;;;;;;;;;;;25.22;64.86;101393.09;5016545;28;19909;-47
2022/09/12 11:54:01;;;;;;;;;;;;;;;25.02;64.89;101384.53;5021578;28;20227;-46
2022/09/12 11:56:26;;;;;;;;;;;;;;;25.06;65.75;101383.75;5021264;28;19913;-47
2022/09/12 11:58:55;;;;;;;;;;;;;;;25.15;64.91;101367.78;5032265;28;19912;-47
2022/09/12 12:01:23;;;;;;;;;;;;;;;25.34;63.91;101362.13;5023716;28;19909;-47
2022/09/12 12:03:51;;;;;;;;;;;;;;;25.16;58.79;101371.38;5017233;28;20561;-46
2022/09/12 12:06:42;;;;;;;;;;;;;;;25.09;61.11;101369.63;5016429;28;19909;-45
2022/09/12 12:09:10;;;;;;;;;;;;;;;25.44;57.96;101365.03;5018353;28;19916;-46
2022/09/12 12:11:40;;;;;;;;;;;;;;;25.48;58.21;101366.22;5037193;28;19955;-43
2022/09/12 12:14:14;;;;;;;;;;;;;;;25.13;57.24;101357.09;5036722;28;20319;-44
2022/09/12 12:16:40;;;;;;;;;;;;;;;25.08;59.28;101364.41;5036807;28;19988;-45
2022/09/12 12:19:17;;;;;;;;;;;;;;;25.43;61.52;101363.41;5035897;28;19920;-44
2022/09/12 12:21:42;;;;;;;;;;;;;;;25.93;61.65;101364.44;5069100;28;19912;-43
2022/09/12 12:24:07;;;;;;;;;;;;;;;26.26;59.85;101369.03;5015551;28;20518;-47
2022/09/12 12:26:41;;;;;;;;;;;;;;;26.27;57.84;101361.66;5015817;28;19912;-44
2022/09/12 12:29:29;;;;;;;;;;;;;;;26.23;55.67;101353.94;5028993;28;20156;-50
2022/09/12 12:31:57;;;;;;;;;;;;;;;26.15;57.06;101356.28;5018047;28;20303;-45
2022/09/12 12:34:33;;;;;;;;;;;;;;;26.28;55.45;101349.63;5014745;28;19913;-45
2022/09/12 12:37:18;;;;;;;;;;;;;;;26.74;53.36;101353.75;5027820;28;19928;-47